Gonzales, Texas
Current Conditions -  °F | °C
As of 8:47 AM on Monday 22 Dec 2014 (Local Time) from KHYI Reporting Station
Broken Clouds Broken Clouds  
Wind Chill: 57°   Ceiling: 1300
Heat Index: 57°   Visibility: 10mi
Dew Point: 52°   Wind: 17mph
Humidity: 82%   Direction: 220°SW
Pressure: 29.74"   Gusts: 23mph
Location:  29.5°N, 97.45°W
Report Text: KHYI 221447Z 22015G20KT 10SM BKN013 14/11 A2974
Loading
Personal Weather Stations






























Interactive Weather Map New forecast layout! Learn more

10-Day Weather Forecast

Advertisements
Track Severe Weather on mobile